This is the latest recevied weather packets stored in our database for station/object SA3VCC-15. If no packets are shown the sender has not sent any weather packets the latest 10 day(s).
| Time | Temp. | Humidity | Pressure | Rain* | Wind** | Luminosity | Snow |
|---|---|---|---|---|---|---|---|
| 1777869280 | 7.22° C | 93% | 1001.4 hPa | - | - | - | - |
| 1777868020 | 6.67° C | 95% | 1001.6 hPa | - | - | - | - |
| 1777866760 | 6.67° C | 96% | 1001.8 hPa | - | - | - | - |
| 1777865500 | 6.11° C | 96% | 1002 hPa | - | - | - | - |
| 1777862980 | 6.11° C | 96% | 1002.3 hPa | - | - | - | - |
| 1777861720 | 6.11° C | 96% | 1002.6 hPa | - | - | - | - |
| 1777860460 | 5.56° C | 96% | 1002.8 hPa | - | - | - | - |
| 1777859200 | 5.56° C | 95% | 1003.1 hPa | - | - | - | - |
| 1777857940 | 5.56° C | 94% | 1003.3 hPa | - | - | - | - |
| 1777856680 | 5.56° C | 94% | 1003.4 hPa | - | - | - | - |
| 1777855420 | 5° C | 94% | 1003.7 hPa | - | - | - | - |
| 1777854160 | 5° C | 94% | 1003.9 hPa | - | - | - | - |
| 1777852900 | 5° C | 94% | 1004 hPa | - | - | - | - |
| 1777851640 | 5° C | 96% | 1004.3 hPa | - | - | - | - |
| 1777850380 | 3.89° C | 98% | 1004.3 hPa | - | - | - | - |
| 1777849120 | 3.33° C | 96% | 1004.5 hPa | - | - | - | - |
| 1777846600 | 4.44° C | 90% | 1004.7 hPa | - | - | - | - |
| 1777844079 | 6.11° C | 85% | 1005.2 hPa | - | - | - | - |
| 1777842819 | 5.56° C | 86% | 1005.3 hPa | - | - | - | - |
| 1777841559 | 5° C | 86% | 1005.3 hPa | - | - | - | - |
| 1777840299 | 5.56° C | 84% | 1005.4 hPa | - | - | - | - |
| 1777837779 | 6.67° C | 75% | 1005.7 hPa | - | - | - | - |
| 1777835259 | 7.22° C | 73% | 1005.9 hPa | - | - | - | - |
| 1777833999 | 7.22° C | 71% | 1006 hPa | - | - | - | - |
| 1777832739 | 7.78° C | 69% | 1006.1 hPa | - | - | - | - |
* Rain since midnight (hover to see other rain measurements)
** Current wind speed in m/s (hover to see current wind gust speed)